KSSC/SSC METAR and TAF weather

Enter ICAO airport designator
Station Type Date Time Source
KSSC METAR 2020/09/25 05:56 UTC NOAA

KSSC 250556Z 06004KT 10SM FEW030 OVC060 21/19 A3001 RMK AO2A SLP162 60001 T02080189 10211 20198 56008 $


Station Type Date Time Source
KSSC Decoded METAR 2020/09/25 05:56 UTC NOAA

Shaw Air Force Base, SC, United States (KSSC) 33-58N 080-29W 73M
Sep 25, 2020 - 01:56 AM EDT / 2020.09.25 0556 UTC
Wind: from the ENE (060 degrees) at 5 MPH (4 KT):0
Visibility: 10 mile(s):0
Sky conditions: overcast
Temperature: 69.4 F (20.8 C)
Dew Point: 66.0 F (18.9 C)
Relative Humidity: 88%
Pressure (altimeter): 30.01 in. Hg (1016 hPa)
Pressure tendency: 0.02 inches (0.8 hPa) lower than three hours ago
ob: KSSC 250556Z 06004KT 10SM FEW030 OVC060 21/19 A3001 RMK AO2A SLP162 60001 T02080189 10211 20198 56008
cycle: 6

Station Type Date Time Source
KSSC TAF 2020/09/24 23:04 UTC NOAA

TAF KSSC 242300Z 2423/2605 07009KT 8000 -RA SCT020 OVC100 QNH3001INS
BECMG 2501/2502 07009KT 9999 NSW SCT020 BKN050 QNH3000INS
BECMG 2507/2508 07009KT 9999 BKN010 OVC030 QNH2999INS
BECMG 2510/2511 09009KT 8000 -SHRA SCT010 BKN025 QNH3000INS
BECMG 2513/2514 11009KT 9999 NSW SCT010 BKN030 QNH2997INS
TEMPO 2521/2601 16010G15KT 6000 -TSRA BKN015CB TX28/2520Z TN19/2511Z

Example: see airport list